createdAt,value
2022-09-17T00:02:25.514Z,19.35
2022-09-17T00:04:58.328Z,19.02
2022-09-17T00:07:31.032Z,19.24
2022-09-17T00:10:03.711Z,19.22
2022-09-17T00:12:36.365Z,19.13
2022-09-17T00:15:10.099Z,19.04
2022-09-17T00:17:44.226Z,19.13
2022-09-17T00:20:18.174Z,19.06
2022-09-17T00:22:50.855Z,19.09
2022-09-17T00:25:23.911Z,19.20
2022-09-17T00:27:56.579Z,19.18
2022-09-17T00:30:29.394Z,19.29
2022-09-17T00:33:03.543Z,19.16
2022-09-17T00:35:36.314Z,19.27
2022-09-17T00:38:08.983Z,19.17
2022-09-17T00:40:41.607Z,19.28
2022-09-17T00:43:14.314Z,19.27
2022-09-17T00:45:47.125Z,19.07
2022-09-17T00:48:21.147Z,19.07
2022-09-17T00:50:54.590Z,19.09
2022-09-17T00:53:28.305Z,19.00
2022-09-17T00:56:05.817Z,18.90
2022-09-17T00:58:41.407Z,18.94
2022-09-17T01:01:15.904Z,19.04
2022-09-17T01:03:49.991Z,18.86
2022-09-17T01:06:31.490Z,18.92
2022-09-17T01:09:17.038Z,18.86
2022-09-17T01:12:09.452Z,18.80
2022-09-17T01:14:56.128Z,18.77
2022-09-17T01:17:36.191Z,18.85
2022-09-17T01:20:46.597Z,18.84
2022-09-17T01:24:07.343Z,18.91
2022-09-17T01:27:08.125Z,18.97
2022-09-17T01:30:00.839Z,18.82
2022-09-17T01:32:40.232Z,18.85
2022-09-17T01:35:21.797Z,18.89
2022-09-17T01:38:02.671Z,18.94
2022-09-17T01:40:42.090Z,18.82
2022-09-17T01:43:22.947Z,18.83
2022-09-17T01:46:01.124Z,18.80
2022-09-17T01:48:41.184Z,18.70
2022-09-17T01:51:18.030Z,18.70
2022-09-17T01:53:57.922Z,18.82
2022-09-17T01:56:38.874Z,18.75
2022-09-17T01:59:18.785Z,18.68
2022-09-17T02:01:56.027Z,18.66
2022-09-17T02:04:37.164Z,18.62
2022-09-17T02:07:16.957Z,18.67
2022-09-17T02:09:59.349Z,18.53
2022-09-17T02:12:35.194Z,18.67
2022-09-17T02:15:14.073Z,18.54
2022-09-17T02:17:51.070Z,18.67
2022-09-17T02:20:31.101Z,18.66
2022-09-17T02:23:09.151Z,18.72
2022-09-17T02:25:48.237Z,18.65
2022-09-17T02:28:27.984Z,18.61
2022-09-17T02:31:00.754Z,18.67
2022-09-17T02:33:36.886Z,18.52
2022-09-17T02:36:11.050Z,18.56
2022-09-17T02:38:46.438Z,18.61
2022-09-17T02:41:23.586Z,18.45
2022-09-17T02:44:07.409Z,18.50
2022-09-17T02:46:55.145Z,18.54
2022-09-17T02:49:44.118Z,18.59
2022-09-17T02:52:31.661Z,18.46
2022-09-17T02:55:13.576Z,18.36
2022-09-17T02:57:54.229Z,18.43
2022-09-17T03:00:28.414Z,18.45
2022-09-17T03:03:07.221Z,18.42
2022-09-17T03:05:42.824Z,18.34
2022-09-17T03:08:18.550Z,18.43
2022-09-17T03:10:51.392Z,18.47
2022-09-17T03:13:24.069Z,18.38
2022-09-17T03:15:57.306Z,18.53
2022-09-17T03:18:30.058Z,18.46
2022-09-17T03:21:02.769Z,18.38
2022-09-17T03:23:36.869Z,18.29
2022-09-17T03:26:09.643Z,18.46
2022-09-17T03:28:42.432Z,18.40
2022-09-17T03:31:15.195Z,18.33
2022-09-17T03:33:48.441Z,18.33
2022-09-17T03:36:20.971Z,18.30
2022-09-17T03:38:56.624Z,18.25
2022-09-17T03:41:29.409Z,18.34
2022-09-17T03:44:02.202Z,18.38
2022-09-17T03:46:34.998Z,18.16
2022-09-17T03:49:08.999Z,18.24
2022-09-17T03:51:41.664Z,18.32
2022-09-17T03:54:15.702Z,18.36
2022-09-17T03:56:48.622Z,18.40
2022-09-17T03:59:21.318Z,18.32
2022-09-17T04:01:54.328Z,18.34
2022-09-17T04:04:27.080Z,18.36
2022-09-17T04:06:59.803Z,18.26
2022-09-17T04:09:35.358Z,18.37
2022-09-17T04:12:08.902Z,18.16
2022-09-17T04:14:41.698Z,18.22
2022-09-17T04:17:18.088Z,18.18
2022-09-17T04:19:50.964Z,18.34
2022-09-17T04:22:23.641Z,18.28
2022-09-17T04:24:57.671Z,18.27
2022-09-17T04:27:30.407Z,18.16
2022-09-17T04:30:03.176Z,18.19
2022-09-17T04:32:36.041Z,18.31
2022-09-17T04:35:09.500Z,18.20
2022-09-17T04:37:42.358Z,18.32
2022-09-17T04:40:16.463Z,18.22
2022-09-17T04:42:49.515Z,18.11
2022-09-17T04:45:22.059Z,18.09
2022-09-17T04:47:54.896Z,18.35
2022-09-17T04:50:27.535Z,18.35
2022-09-17T04:53:00.238Z,18.33
2022-09-17T04:55:34.287Z,18.30
2022-09-17T04:58:07.228Z,18.38
2022-09-17T05:00:42.413Z,18.31
2022-09-17T05:03:15.435Z,18.25
2022-09-17T05:05:48.075Z,18.43
2022-09-17T05:08:22.925Z,18.36
2022-09-17T05:10:56.909Z,18.31
2022-09-17T05:13:29.611Z,18.20
2022-09-17T05:16:02.498Z,18.29
2022-09-17T05:18:35.264Z,18.22
2022-09-17T05:21:07.940Z,18.19
2022-09-17T05:23:40.615Z,18.15
2022-09-17T05:26:14.731Z,18.16
2022-09-17T05:28:47.398Z,18.15
2022-09-17T05:31:20.175Z,18.21
2022-09-17T05:33:52.918Z,18.29
2022-09-17T05:36:25.674Z,18.21
2022-09-17T05:38:58.288Z,18.13
2022-09-17T05:41:32.317Z,18.17
2022-09-17T05:44:05.229Z,18.14
2022-09-17T05:46:37.906Z,18.25
2022-09-17T05:49:10.597Z,18.21
2022-09-17T05:51:43.705Z,18.28
2022-09-17T05:54:16.247Z,18.16
2022-09-17T05:56:53.948Z,18.16
2022-09-17T05:59:27.972Z,18.28
2022-09-17T06:02:00.699Z,18.33
2022-09-17T06:04:35.014Z,18.20
2022-09-17T06:07:09.329Z,18.13
2022-09-17T06:09:42.177Z,18.32
2022-09-17T06:12:16.141Z,18.37
2022-09-17T06:14:50.042Z,18.28
2022-09-17T06:17:22.674Z,18.41
2022-09-17T06:19:55.438Z,18.38
2022-09-17T06:22:28.305Z,18.26
2022-09-17T06:25:02.301Z,18.10
2022-09-17T06:27:36.588Z,18.27
2022-09-17T06:30:09.909Z,18.29
2022-09-17T06:32:42.767Z,18.16
2022-09-17T06:35:15.660Z,18.11
2022-09-17T06:37:48.753Z,18.28
2022-09-17T06:40:23.723Z,18.31
2022-09-17T06:42:59.884Z,18.26
2022-09-17T06:45:33.287Z,18.38
2022-09-17T06:48:06.764Z,18.34
2022-09-17T06:50:42.786Z,18.33
2022-09-17T06:53:15.666Z,18.50
2022-09-17T06:55:48.480Z,18.63
2022-09-17T06:58:22.489Z,18.60
2022-09-17T07:01:00.157Z,18.54
2022-09-17T07:03:33.340Z,18.52
2022-09-17T07:06:06.187Z,18.48
2022-09-17T07:08:39.482Z,18.55
2022-09-17T07:11:12.210Z,18.60
2022-09-17T07:13:46.254Z,18.72
2022-09-17T07:16:19.791Z,18.58
2022-09-17T07:18:52.646Z,18.60
2022-09-17T07:21:25.360Z,18.50
2022-09-17T07:23:58.135Z,18.81
2022-09-17T07:26:30.985Z,18.73
2022-09-17T07:29:04.927Z,18.64
2022-09-17T07:31:37.635Z,18.74
2022-09-17T07:34:11.026Z,18.98
2022-09-17T07:36:44.410Z,19.00
2022-09-17T07:39:17.115Z,18.96
2022-09-17T07:41:49.780Z,18.92
2022-09-17T07:44:23.839Z,19.06
2022-09-17T07:46:56.572Z,18.89
2022-09-17T07:49:29.374Z,18.93
2022-09-17T07:52:06.200Z,19.04
2022-09-17T07:54:38.830Z,19.11
2022-09-17T07:57:13.053Z,19.21
2022-09-17T07:59:47.114Z,19.23
2022-09-17T08:02:24.157Z,19.24
2022-09-17T08:04:57.264Z,19.16
2022-09-17T08:07:29.998Z,19.10
2022-09-17T08:10:03.462Z,19.22
2022-09-17T08:12:36.210Z,19.10
2022-09-17T08:15:11.162Z,19.21
2022-09-17T08:17:44.899Z,19.16
2022-09-17T08:20:18.510Z,19.13
2022-09-17T08:22:51.155Z,19.15
2022-09-17T08:25:24.661Z,19.15
2022-09-17T08:27:57.513Z,19.33
2022-09-17T08:30:32.338Z,19.34
2022-09-17T08:33:05.066Z,19.44
2022-09-17T08:35:37.763Z,19.51
2022-09-17T08:38:10.487Z,19.60
2022-09-17T08:40:54.043Z,19.72
2022-09-17T08:43:28.589Z,19.57
2022-09-17T08:46:02.860Z,19.39
2022-09-17T08:48:42.091Z,19.48
2022-09-17T08:51:29.552Z,19.75
2022-09-17T08:54:11.166Z,19.83
2022-09-17T08:56:49.374Z,19.91
2022-09-17T08:59:31.547Z,20.05
2022-09-17T09:02:25.347Z,20.18
2022-09-17T09:05:07.984Z,19.75
2022-09-17T09:07:45.422Z,20.20
2022-09-17T09:10:23.323Z,19.64
2022-09-17T09:12:59.568Z,20.29
2022-09-17T09:15:41.308Z,20.23
2022-09-17T09:18:19.713Z,20.33
2022-09-17T09:20:56.236Z,20.23
2022-09-17T09:23:35.306Z,19.99
2022-09-17T09:26:17.647Z,19.85
2022-09-17T09:29:05.903Z,19.86
2022-09-17T09:31:54.930Z,20.00
2022-09-17T09:34:30.465Z,20.00
2022-09-17T09:37:13.188Z,19.91
2022-09-17T09:39:48.736Z,20.04
2022-09-17T09:42:30.381Z,19.78
2022-09-17T09:45:13.675Z,19.88
2022-09-17T09:47:55.870Z,19.84
2022-09-17T09:50:55.059Z,20.17
2022-09-17T09:53:42.079Z,20.08
2022-09-17T09:56:33.073Z,20.05
2022-09-17T09:59:08.502Z,19.94
2022-09-17T10:01:44.981Z,19.88
2022-09-17T10:04:20.874Z,19.81
2022-09-17T10:06:56.292Z,19.96
2022-09-17T10:09:30.076Z,20.01
2022-09-17T10:12:06.207Z,20.13
2022-09-17T10:14:40.102Z,20.23
2022-09-17T10:17:17.718Z,20.28
2022-09-17T10:20:23.583Z,20.13
2022-09-17T10:22:57.629Z,20.16
2022-09-17T10:25:33.349Z,20.35
2022-09-17T10:28:26.305Z,20.75
2022-09-17T10:31:03.157Z,21.04
2022-09-17T10:33:53.186Z,21.02
2022-09-17T10:36:41.277Z,20.95
2022-09-17T10:39:34.015Z,20.64
2022-09-17T10:42:14.007Z,20.96
2022-09-17T10:44:53.350Z,21.16
2022-09-17T10:47:29.084Z,21.33
2022-09-17T10:50:04.823Z,21.27
2022-09-17T10:52:42.195Z,21.40
2022-09-17T10:55:30.071Z,21.60
2022-09-17T10:58:18.435Z,20.94
2022-09-17T11:01:03.231Z,21.30
2022-09-17T11:03:52.520Z,21.77
2022-09-17T11:06:38.829Z,22.05
2022-09-17T11:09:26.944Z,22.16
2022-09-17T11:12:15.657Z,22.08
2022-09-17T11:14:56.777Z,22.02
2022-09-17T11:17:44.191Z,21.49
2022-09-17T11:20:26.167Z,22.03
2022-09-17T11:23:13.706Z,22.10
2022-09-17T11:25:58.357Z,22.26
2022-09-17T11:28:59.178Z,22.30
2022-09-17T11:31:39.900Z,22.32
2022-09-17T11:34:30.764Z,22.40
2022-09-17T11:37:10.248Z,21.61
2022-09-17T11:39:48.916Z,21.96
2022-09-17T11:42:25.804Z,22.17
2022-09-17T11:45:05.347Z,22.22
2022-09-17T11:47:44.107Z,22.19
2022-09-17T11:50:22.579Z,22.09
2022-09-17T11:53:05.008Z,22.30
2022-09-17T11:55:46.506Z,21.78
2022-09-17T11:58:27.681Z,22.09
2022-09-17T12:01:07.918Z,22.46
2022-09-17T12:03:44.220Z,22.75
2022-09-17T12:06:24.277Z,22.73
2022-09-17T12:09:02.864Z,22.82
2022-09-17T12:11:40.073Z,22.95
2022-09-17T12:14:19.359Z,22.76
2022-09-17T12:16:57.523Z,22.47
2022-09-17T12:19:35.472Z,22.80
2022-09-17T12:22:11.496Z,22.86
2022-09-17T12:24:45.443Z,22.92
2022-09-17T12:27:26.767Z,22.82
2022-09-17T12:30:12.532Z,22.89
2022-09-17T12:33:03.118Z,22.99
2022-09-17T12:36:05.293Z,22.54
2022-09-17T12:39:03.054Z,22.89
2022-09-17T12:41:50.929Z,22.88
2022-09-17T12:44:39.146Z,22.94
2022-09-17T12:47:35.368Z,23.01
2022-09-17T12:50:20.630Z,23.05
2022-09-17T12:53:09.576Z,22.94
2022-09-17T12:56:02.129Z,22.61
2022-09-17T12:59:10.140Z,22.80
2022-09-17T13:01:52.146Z,22.97
2022-09-17T13:05:04.221Z,22.93
2022-09-17T13:08:05.143Z,22.92
2022-09-17T13:11:15.210Z,22.88
2022-09-17T13:13:53.644Z,22.67
2022-09-17T13:16:34.975Z,22.48
2022-09-17T13:19:19.873Z,22.73
2022-09-17T13:21:55.639Z,22.71
2022-09-17T13:24:31.803Z,22.64
2022-09-17T13:27:05.972Z,22.66
2022-09-17T13:29:59.496Z,22.70
2022-09-17T13:32:53.629Z,22.66
2022-09-17T13:35:45.938Z,22.51
2022-09-17T13:38:23.682Z,22.85
2022-09-17T13:41:19.656Z,22.87
2022-09-17T13:43:56.014Z,22.94
2022-09-17T13:46:32.587Z,22.89
2022-09-17T13:49:13.465Z,22.94
2022-09-17T13:51:52.131Z,22.93
2022-09-17T13:54:39.074Z,22.83
2022-09-17T13:57:16.399Z,22.96
2022-09-17T13:59:57.759Z,22.99
2022-09-17T14:02:36.502Z,23.11
2022-09-17T14:05:26.297Z,23.17
2022-09-17T14:08:29.024Z,23.11
2022-09-17T14:11:05.836Z,22.72
2022-09-17T14:13:45.342Z,22.81
2022-09-17T14:16:50.333Z,23.01
2022-09-17T14:19:37.325Z,22.94
2022-09-17T14:22:16.554Z,23.03
2022-09-17T14:24:52.409Z,22.99
2022-09-17T14:27:46.516Z,23.01
2022-09-17T14:30:22.077Z,23.10
2022-09-17T14:33:04.756Z,23.07
2022-09-17T14:35:41.798Z,22.76
2022-09-17T14:38:21.069Z,22.93
2022-09-17T14:41:01.561Z,22.95
2022-09-17T14:43:43.274Z,22.81
2022-09-17T14:46:23.792Z,22.84
2022-09-17T14:48:56.845Z,22.84
2022-09-17T14:51:30.564Z,22.87
2022-09-17T14:54:15.713Z,22.47
2022-09-17T14:57:00.345Z,22.55
2022-09-17T14:59:43.371Z,22.65
2022-09-17T15:02:37.897Z,22.60
2022-09-17T15:05:23.416Z,22.55
2022-09-17T15:08:15.332Z,22.57
2022-09-17T15:10:54.279Z,22.61
2022-09-17T15:13:29.126Z,22.29
2022-09-17T15:16:04.808Z,22.50
2022-09-17T15:18:42.891Z,22.57
2022-09-17T15:21:27.100Z,22.57
2022-09-17T15:24:07.724Z,22.50
2022-09-17T15:26:46.114Z,22.53
2022-09-17T15:29:22.504Z,22.46
2022-09-17T15:31:56.049Z,22.41
2022-09-17T15:34:30.397Z,22.11
2022-09-17T15:37:07.751Z,22.38
2022-09-17T15:39:42.560Z,22.45
2022-09-17T15:42:20.416Z,22.42
2022-09-17T15:44:53.462Z,22.42
2022-09-17T15:47:36.188Z,22.46
2022-09-17T15:50:17.059Z,22.42
2022-09-17T15:52:50.650Z,22.13
2022-09-17T15:55:31.581Z,22.27
2022-09-17T15:58:07.341Z,22.44
2022-09-17T16:00:40.194Z,22.51
2022-09-17T16:04:08.662Z,22.50
2022-09-17T16:06:50.220Z,22.45
2022-09-17T16:09:48.755Z,22.36
2022-09-17T16:12:23.724Z,22.14
2022-09-17T16:14:58.012Z,22.01
2022-09-17T16:17:35.533Z,21.99
2022-09-17T16:20:14.069Z,22.06
2022-09-17T16:22:49.041Z,22.02
2022-09-17T16:25:26.854Z,21.77
2022-09-17T16:28:03.382Z,21.95
2022-09-17T16:30:36.613Z,21.96
2022-09-17T16:33:12.493Z,21.55
2022-09-17T16:35:45.385Z,21.73
2022-09-17T16:38:19.637Z,21.74
2022-09-17T16:40:52.595Z,21.86
2022-09-17T16:43:25.702Z,21.83
2022-09-17T16:46:01.791Z,21.77
2022-09-17T16:48:34.701Z,21.73
2022-09-17T16:51:08.715Z,21.66
2022-09-17T16:53:42.860Z,21.38
2022-09-17T16:56:16.583Z,21.49
2022-09-17T16:58:49.611Z,21.48
2022-09-17T17:01:22.630Z,21.57
2022-09-17T17:03:59.472Z,21.52
2022-09-17T17:06:32.337Z,21.46
2022-09-17T17:09:07.274Z,21.42
2022-09-17T17:11:40.132Z,21.48
2022-09-17T17:14:14.949Z,21.15
2022-09-17T17:16:48.002Z,21.21
2022-09-17T17:19:20.832Z,21.38
2022-09-17T17:21:54.017Z,21.20
2022-09-17T17:24:28.118Z,21.03
2022-09-17T17:27:01.739Z,21.22
2022-09-17T17:29:35.350Z,20.95
2022-09-17T17:32:08.453Z,21.20
2022-09-17T17:34:41.120Z,21.02
2022-09-17T17:37:14.674Z,20.95
2022-09-17T17:39:48.873Z,20.85
2022-09-17T17:42:22.388Z,20.92
2022-09-17T17:44:55.612Z,20.80
2022-09-17T17:47:28.131Z,20.96
2022-09-17T17:50:01.101Z,20.87
2022-09-17T17:52:33.940Z,20.72
2022-09-17T17:55:09.091Z,20.79
2022-09-17T17:57:42.347Z,20.68
2022-09-17T18:00:17.090Z,20.75
2022-09-17T18:02:50.998Z,20.81
2022-09-17T18:05:24.202Z,20.70
2022-09-17T18:07:56.810Z,20.67
2022-09-17T18:10:31.074Z,20.60
2022-09-17T18:13:03.918Z,20.53
2022-09-17T18:15:37.182Z,20.70
2022-09-17T18:18:10.305Z,20.45
2022-09-17T18:20:42.858Z,20.49
2022-09-17T18:23:15.732Z,20.49
2022-09-17T18:25:56.265Z,20.36
2022-09-17T18:28:30.910Z,20.32
2022-09-17T18:31:06.786Z,20.24
2022-09-17T18:33:41.167Z,20.28
2022-09-17T18:36:14.377Z,20.26
2022-09-17T18:38:47.099Z,20.15
2022-09-17T18:41:21.263Z,20.37
2022-09-17T18:43:54.062Z,20.36
2022-09-17T18:46:27.296Z,20.29
2022-09-17T18:49:01.349Z,20.20
2022-09-17T18:51:34.214Z,20.13
2022-09-17T18:54:07.285Z,20.25
2022-09-17T18:56:42.199Z,20.13
2022-09-17T18:59:15.068Z,20.17
2022-09-17T19:01:48.994Z,20.13
2022-09-17T19:04:23.085Z,20.20
2022-09-17T19:06:55.938Z,20.12
2022-09-17T19:09:28.769Z,20.03
2022-09-17T19:12:03.233Z,20.04
2022-09-17T19:14:36.010Z,19.98
2022-09-17T19:17:09.246Z,20.01
2022-09-17T19:19:42.188Z,19.91
2022-09-17T19:22:14.842Z,19.81
2022-09-17T19:24:47.525Z,19.74
2022-09-17T19:27:21.559Z,19.71
2022-09-17T19:29:55.166Z,19.78
2022-09-17T19:32:28.706Z,19.77
2022-09-17T19:35:01.490Z,19.77
2022-09-17T19:37:34.332Z,19.70
2022-09-17T19:40:08.245Z,19.76
2022-09-17T19:42:42.709Z,19.55
2022-09-17T19:45:15.999Z,19.67
2022-09-17T19:47:49.010Z,19.65
2022-09-17T19:50:21.587Z,19.59
2022-09-17T19:52:54.366Z,19.60
2022-09-17T19:55:27.185Z,19.53
2022-09-17T19:58:04.552Z,19.64
2022-09-17T20:00:37.570Z,19.50
2022-09-17T20:03:10.535Z,19.40
2022-09-17T20:05:43.604Z,19.46
2022-09-17T20:08:16.183Z,19.52
2022-09-17T20:10:50.261Z,19.44
2022-09-17T20:13:25.452Z,19.57
2022-09-17T20:16:04.574Z,19.51
2022-09-17T20:18:37.831Z,19.53
2022-09-17T20:21:11.784Z,19.44
2022-09-17T20:23:45.648Z,19.39
2022-09-17T20:26:18.494Z,19.46
2022-09-17T20:28:53.202Z,19.33
2022-09-17T20:31:27.681Z,19.48
2022-09-17T20:34:02.443Z,19.48
2022-09-17T20:36:36.444Z,19.43
2022-09-17T20:39:16.538Z,19.32
2022-09-17T20:41:52.529Z,19.31
2022-09-17T20:44:26.653Z,19.25
2022-09-17T20:47:00.096Z,19.24
2022-09-17T20:49:32.977Z,19.42
2022-09-17T20:52:05.996Z,19.28
2022-09-17T20:54:38.853Z,19.34
2022-09-17T20:57:11.771Z,19.29
2022-09-17T20:59:53.265Z,19.29
2022-09-17T21:02:26.258Z,19.26
2022-09-17T21:04:58.928Z,19.15
2022-09-17T21:07:33.208Z,19.17
2022-09-17T21:10:07.171Z,19.20
2022-09-17T21:12:40.235Z,19.31
2022-09-17T21:15:14.924Z,19.15
2022-09-17T21:17:48.193Z,19.33
2022-09-17T21:20:21.062Z,19.22
2022-09-17T21:22:54.161Z,19.17
2022-09-17T21:25:26.733Z,19.10
2022-09-17T21:28:00.569Z,19.15
2022-09-17T21:30:34.669Z,19.15
2022-09-17T21:33:07.408Z,19.18
2022-09-17T21:35:40.604Z,19.17
2022-09-17T21:38:13.429Z,19.26
2022-09-17T21:40:57.247Z,19.31
2022-09-17T21:43:31.055Z,19.39
2022-09-17T21:46:06.987Z,19.26
2022-09-17T21:48:44.892Z,19.30
2022-09-17T21:51:20.294Z,19.23
2022-09-17T21:53:54.805Z,19.21
2022-09-17T21:56:28.026Z,19.26
2022-09-17T21:59:04.313Z,19.19
2022-09-17T22:01:40.729Z,19.31
2022-09-17T22:04:15.906Z,19.23
2022-09-17T22:06:59.542Z,19.29
2022-09-17T22:09:36.991Z,19.19
2022-09-17T22:12:11.247Z,19.26
2022-09-17T22:14:44.109Z,19.24
2022-09-17T22:17:21.681Z,19.23
2022-09-17T22:20:02.053Z,19.13
2022-09-17T22:22:34.773Z,19.09
2022-09-17T22:25:11.834Z,19.25
2022-09-17T22:27:58.530Z,19.19
2022-09-17T22:30:37.271Z,19.23
2022-09-17T22:33:12.472Z,19.20
2022-09-17T22:35:45.621Z,19.31
2022-09-17T22:38:18.802Z,19.19
2022-09-17T22:40:51.488Z,19.21
2022-09-17T22:43:24.344Z,19.08
2022-09-17T22:45:59.238Z,19.07
2022-09-17T22:48:33.508Z,19.15
2022-09-17T22:51:07.019Z,19.05
2022-09-17T22:53:41.118Z,19.12
2022-09-17T22:56:16.273Z,19.10
2022-09-17T22:58:49.398Z,19.01
2022-09-17T23:01:23.015Z,19.01
2022-09-17T23:03:57.797Z,19.09
2022-09-17T23:06:33.073Z,19.02
2022-09-17T23:09:09.359Z,19.11
2022-09-17T23:11:42.784Z,19.17
2022-09-17T23:14:18.280Z,19.15
2022-09-17T23:16:51.220Z,19.14
2022-09-17T23:19:26.384Z,19.18
2022-09-17T23:21:59.070Z,19.20
2022-09-17T23:24:34.451Z,19.22
2022-09-17T23:27:07.272Z,19.21
2022-09-17T23:29:40.060Z,19.13
2022-09-17T23:32:12.845Z,19.23
2022-09-17T23:34:46.895Z,19.15
2022-09-17T23:37:22.512Z,19.24
2022-09-17T23:39:56.593Z,19.03
2022-09-17T23:42:29.410Z,19.07
2022-09-17T23:45:02.168Z,19.20
2022-09-17T23:47:34.954Z,19.08
2022-09-17T23:50:10.010Z,19.00
2022-09-17T23:52:43.785Z,19.14
2022-09-17T23:55:16.562Z,19.13
2022-09-17T23:57:49.346Z,19.06
